Chimney Point, Vermont
Current Conditions -  °F | °C
As of 3:35 AM on Friday 28 Nov 2014 (Local Time) from K6B0 Reporting Station
Light Snow Light Snow  
Wind Chill: 24°   Ceiling: 4500
Heat Index: 24°   Visibility: 4mi
Dew Point: 24°   Wind: 0mph
Humidity: 100%   Direction: NA
Pressure: 30.02"   Gusts: NA
Location:  44.0804°N, 73.3324°W
Report Text: K6B0 280835Z AUTO 00000KT 4SM -SN SCT029 SCT034 OVC045 M05/M05 A3002 RMK AO2 T10461046
Loading
Personal Weather Stations






























Interactive Weather Map New forecast layout! Learn more

10-Day Weather Forecast

Advertisements
Track Severe Weather on mobile